Time;durP1;ratioP1;P1;durP2;ratioP2;P2;SDS_P1;SDS_P2;PMS_P1;PMS_P2;Temp;Humidity;BMP_temperature;BMP_pressure;BME280_temperature;BME280_humidity;BME280_pressure;Samples;Min_cycle;Max_cycle;Signal;HPM_P1;HPM_P2
2022/08/19 00:00:25;;;;;;;12.40;6.85;;;;;;;30.96;34.49;99019.16;4474751;32;34215;-62
2022/08/19 00:02:53;;;;;;;10.30;7.35;;;;;;;30.96;34.55;99019.16;4478947;32;33889;-62
2022/08/19 00:05:21;;;;;;;12.00;7.45;;;;;;;30.94;34.60;99024.94;4475373;32;33238;-61
2022/08/19 00:07:49;;;;;;;14.32;7.55;;;;;;;30.98;34.61;99017.78;4483604;32;33874;-62
2022/08/19 00:10:18;;;;;;;11.70;7.53;;;;;;;31.03;34.42;99016.97;4484804;32;33920;-62
2022/08/19 00:12:46;;;;;;;12.07;8.00;;;;;;;31.07;34.44;99018.94;4484944;32;33640;-62
2022/08/19 00:15:16;;;;;;;10.15;6.95;;;;;;;31.06;34.43;99017.28;4482828;32;33405;-63
2022/08/19 00:17:45;;;;;;;15.15;7.07;;;;;;;31.01;34.61;99020.03;4479873;32;34894;-63
2022/08/19 00:20:16;;;;;;;9.95;7.60;;;;;;;30.60;35.38;99029.91;4484583;32;33648;-63
2022/08/19 00:22:45;;;;;;;18.30;7.57;;;;;;;30.67;35.35;99019.44;4482086;32;33856;-63
2022/08/19 00:25:13;;;;;;;8.95;7.05;;;;;;;30.85;34.82;99018.22;4483279;32;32919;-62
2022/08/19 00:27:42;;;;;;;10.65;7.37;;;;;;;30.85;34.84;99021.84;4482345;32;32603;-63
2022/08/19 00:30:10;;;;;;;10.30;7.12;;;;;;;30.73;35.32;99015.63;4483343;32;34072;-63
2022/08/19 00:32:38;;;;;;;9.82;7.65;;;;;;;30.83;34.94;99029.56;4471192;32;33575;-62
2022/08/19 00:35:06;;;;;;;10.25;7.45;;;;;;;30.90;34.94;99023.81;4484680;32;33142;-62
2022/08/19 00:37:34;;;;;;;9.52;7.25;;;;;;;30.78;35.08;99014.88;4478491;32;34054;-62
2022/08/19 00:40:04;;;;;;;10.43;7.47;;;;;;;30.72;35.27;99024.16;4478864;32;33476;-62
2022/08/19 00:42:32;;;;;;;9.23;7.12;;;;;;;30.78;35.06;99023.16;4474105;32;34571;-63
2022/08/19 00:45:00;;;;;;;9.55;6.93;;;;;;;30.80;35.11;99020.97;4480666;32;31711;-63
2022/08/19 00:47:27;;;;;;;12.05;7.45;;;;;;;30.85;35.09;99016.31;4484348;32;32278;-62
2022/08/19 00:49:57;;;;;;;10.02;7.25;;;;;;;30.55;35.67;99008.56;4481322;32;33605;-63
2022/08/19 00:52:31;;;;;;;10.13;7.68;;;;;;;30.47;35.89;99009.06;4474677;32;33599;-63
2022/08/19 00:54:59;;;;;;;11.32;8.55;;;;;;;30.32;35.97;99018.03;4475563;32;33203;-62
2022/08/19 00:57:35;;;;;;;10.23;7.57;;;;;;;30.10;36.05;99011.72;4469330;32;33757;-62
2022/08/19 01:00:08;;;;;;;11.60;8.13;;;;;;;30.15;36.04;99009.00;4484138;32;32880;-62
2022/08/19 01:02:36;;;;;;;11.12;7.40;;;;;;;29.80;36.81;99026.00;4483269;32;34371;-62
2022/08/19 01:05:07;;;;;;;14.10;7.68;;;;;;;30.27;35.88;99017.97;4479962;32;33245;-63
2022/08/19 01:07:35;;;;;;;14.45;7.57;;;;;;;30.31;35.91;98999.00;4482785;32;33582;-62
2022/08/19 01:10:07;;;;;;;10.90;7.85;;;;;;;30.05;36.30;99006.12;4483214;32;34145;-63
2022/08/19 01:12:36;;;;;;;13.15;8.30;;;;;;;30.02;36.44;99010.25;4482385;32;32823;-62
2022/08/19 01:15:06;;;;;;;10.43;7.25;;;;;;;30.14;36.08;99002.66;4479830;32;33133;-62
2022/08/19 01:17:36;;;;;;;10.48;7.87;;;;;;;30.14;36.12;99002.66;4472428;32;33864;-62
2022/08/19 01:20:07;;;;;;;8.40;6.97;;;;;;;30.06;36.23;99005.88;4470319;32;33867;-62
2022/08/19 01:22:49;;;;;;;9.65;7.82;;;;;;;30.00;36.39;99004.16;4475371;32;33685;-62
2022/08/19 01:25:19;;;;;;;11.88;7.60;;;;;;;30.21;36.23;99009.91;4481321;32;33054;-62
2022/08/19 01:27:49;;;;;;;10.98;7.65;;;;;;;30.20;36.03;99002.72;4469230;32;34509;-62
2022/08/19 01:30:24;;;;;;;9.63;8.00;;;;;;;30.12;36.17;98996.56;4482871;32;35502;-62
2022/08/19 01:32:53;;;;;;;9.68;8.00;;;;;;;30.08;36.24;98992.66;4477166;32;33868;-63
2022/08/19 01:35:24;;;;;;;9.10;7.25;;;;;;;29.87;36.62;99004.56;4482062;32;33084;-62
2022/08/19 01:38:07;;;;;;;11.70;7.55;;;;;;;30.00;36.44;98995.06;4472852;32;33370;-62
2022/08/19 01:40:38;;;;;;;10.85;7.87;;;;;;;30.08;36.41;98989.03;4473764;32;35236;-62
2022/08/19 01:43:06;;;;;;;11.10;7.93;;;;;;;29.90;36.55;98982.81;4482261;32;32969;-62
2022/08/19 01:45:35;;;;;;;10.20;7.30;;;;;;;29.81;36.71;98978.84;4476926;32;33718;-63
2022/08/19 01:48:03;;;;;;;12.13;6.95;;;;;;;29.89;36.60;98972.87;4482049;32;34711;-62
2022/08/19 01:50:33;;;;;;;10.27;7.55;;;;;;;29.85;36.71;98974.47;4480191;32;34952;-62
2022/08/19 01:53:02;;;;;;;10.10;7.50;;;;;;;29.88;36.71;98965.69;4482786;32;32585;-62
2022/08/19 01:55:37;;;;;;;10.55;7.62;;;;;;;29.93;36.54;98965.75;4481008;32;34411;-62
2022/08/19 01:58:14;;;;;;;11.75;7.40;;;;;;;29.67;37.02;98967.38;4482914;32;35069;-63
2022/08/19 02:00:43;;;;;;;11.30;8.00;;;;;;;29.66;37.13;98951.09;4482773;32;34889;-62
2022/08/19 02:03:11;;;;;;;11.30;7.25;;;;;;;29.80;36.90;98955.13;4481959;32;34978;-64
2022/08/19 02:05:40;;;;;;;10.20;7.70;;;;;;;29.65;37.16;98941.16;4477936;32;34236;-63
2022/08/19 02:08:08;;;;;;;10.07;7.65;;;;;;;29.44;37.58;98951.09;4483599;32;32818;-63
2022/08/19 02:10:42;;;;;;;13.62;8.57;;;;;;;29.11;38.17;98952.84;4481551;32;34385;-62
2022/08/19 02:13:11;;;;;;;10.00;7.50;;;;;;;28.94;38.54;98963.06;4480377;32;32550;-62
2022/08/19 02:15:39;;;;;;;14.70;8.90;;;;;;;29.18;38.21;98956.28;4483715;32;33457;-63
2022/08/19 02:18:08;;;;;;;11.43;7.80;;;;;;;28.91;38.52;98952.56;4486110;32;33438;-62
2022/08/19 02:20:36;;;;;;;9.57;6.85;;;;;;;29.14;38.23;98957.03;4486208;32;34033;-62
2022/08/19 02:23:05;;;;;;;10.02;8.23;;;;;;;29.41;37.71;98946.94;4486595;32;32378;-63
2022/08/19 02:25:41;;;;;;;11.10;8.35;;;;;;;29.17;38.14;98940.81;4486211;32;33254;-63
2022/08/19 02:28:09;;;;;;;13.93;8.23;;;;;;;28.98;38.57;98925.66;4486101;32;35191;-62
2022/08/19 02:30:37;;;;;;;12.98;8.45;;;;;;;28.95;38.71;98929.75;4486133;32;34053;-63
2022/08/19 02:33:05;;;;;;;11.07;7.60;;;;;;;29.23;38.11;98937.03;4485961;32;34704;-63
2022/08/19 02:35:33;;;;;;;11.45;7.80;;;;;;;29.29;38.10;98946.22;4486176;32;34428;-63
2022/08/19 02:40:52;;;;;;;12.10;8.00;;;;;;;29.57;37.47;98944.34;4486209;32;32664;-63
2022/08/19 02:43:20;;;;;;;10.27;7.68;;;;;;;29.64;37.44;98945.03;4486118;32;33932;-63
2022/08/19 02:45:49;;;;;;;11.57;8.07;;;;;;;29.47;37.69;98948.66;4486187;32;34171;-63
2022/08/19 02:48:18;;;;;;;9.10;7.47;;;;;;;29.49;37.55;98957.50;4486045;32;35110;-63
2022/08/19 02:50:55;;;;;;;11.57;7.60;;;;;;;29.46;37.53;98955.25;4486082;32;32299;-61
2022/08/19 02:53:25;;;;;;;12.52;8.18;;;;;;;29.64;37.21;98959.63;4486029;32;34751;-62
2022/08/19 02:55:53;;;;;;;10.80;8.10;;;;;;;29.65;37.14;98957.72;4484901;32;34958;-62
2022/08/19 02:58:21;;;;;;;11.27;7.53;;;;;;;29.62;37.30;98966.50;4486051;32;35048;-63
2022/08/19 03:00:52;;;;;;;9.65;7.62;;;;;;;29.73;37.02;98956.41;4485945;32;34181;-63
2022/08/19 03:03:20;;;;;;;12.43;8.80;;;;;;;29.60;37.11;98955.72;4486223;32;33592;-62
2022/08/19 03:05:48;;;;;;;9.85;7.55;;;;;;;29.39;37.43;98964.81;4485953;32;33506;-62
2022/08/19 03:08:25;;;;;;;10.07;7.32;;;;;;;29.44;37.39;98964.87;4485982;32;33935;-62
2022/08/19 03:10:53;;;;;;;9.85;7.60;;;;;;;29.54;37.20;98970.53;4485798;32;35106;-63
2022/08/19 03:13:21;;;;;;;12.52;7.78;;;;;;;29.55;37.15;98974.09;4485910;32;33723;-62
2022/08/19 03:15:49;;;;;;;10.18;7.70;;;;;;;29.51;37.32;98983.97;4485955;32;34470;-60
2022/08/19 03:18:16;;;;;;;11.93;8.23;;;;;;;29.28;37.88;98987.78;4481990;32;33858;-62
2022/08/19 03:20:47;;;;;;;9.18;7.40;;;;;;;29.37;37.53;98987.09;4481248;32;33813;-62
2022/08/19 03:23:16;;;;;;;10.30;8.15;;;;;;;29.52;37.33;98980.13;4476837;32;32803;-63
2022/08/19 03:25:47;;;;;;;12.30;7.57;;;;;;;29.67;37.01;98985.88;4482967;32;34482;-63
2022/08/19 03:28:34;;;;;;;9.73;7.55;;;;;;;29.68;37.07;98988.34;4472541;32;34014;-63
2022/08/19 03:31:11;;;;;;;10.43;7.62;;;;;;;29.75;37.00;98990.91;4480954;32;32509;-63
2022/08/19 03:33:59;;;;;;;11.60;7.97;;;;;;;29.79;36.92;98985.69;4479641;32;34779;-62
2022/08/19 03:36:27;;;;;;;11.70;8.77;;;;;;;29.78;36.98;98993.16;4476355;32;33579;-63
2022/08/19 03:38:58;;;;;;;11.75;8.07;;;;;;;29.42;37.49;98991.84;4478963;32;34637;-62
2022/08/19 03:41:31;;;;;;;9.85;7.43;;;;;;;29.52;37.42;98985.63;4482010;32;35226;-62
2022/08/19 03:44:17;;;;;;;9.63;8.13;;;;;;;29.55;37.24;99002.50;4480253;32;34954;-62
2022/08/19 03:46:47;;;;;;;;;;;;;;;29.63;37.16;99002.09;4479478;32;34467;-63
2022/08/19 03:49:14;;;;;;;11.30;7.65;;;;;;;29.78;37.00;99011.63;4474311;32;34212;-64
2022/08/19 03:51:46;;;;;;;10.30;7.50;;;;;;;29.57;37.37;99014.12;4483380;32;34794;-62
2022/08/19 03:54:15;;;;;;;10.50;8.23;;;;;;;29.65;37.14;99010.91;4479516;32;33968;-62
2022/08/19 03:56:44;;;;;;;9.38;7.68;;;;;;;29.60;37.25;99010.00;4480548;32;34302;-63
2022/08/19 03:59:17;;;;;;;10.10;7.12;;;;;;;29.64;37.25;99000.16;4469342;32;32198;-63
2022/08/19 04:01:45;;;;;;;11.85;8.35;;;;;;;29.69;37.13;99005.72;4469337;32;34128;-63
2022/08/19 04:04:13;;;;;;;9.77;7.78;;;;;;;29.72;37.14;99007.97;4475696;32;34690;-61
2022/08/19 04:06:40;;;;;;;10.23;7.95;;;;;;;29.61;37.40;99018.06;4475300;32;33981;-61
2022/08/19 04:09:10;;;;;;;9.48;7.75;;;;;;;29.55;37.48;99015.47;4475296;32;34467;-62
2022/08/19 04:11:46;;;;;;;11.43;7.87;;;;;;;29.55;37.42;99019.03;4480135;32;33652;-62
2022/08/19 04:14:17;;;;;;;10.90;8.02;;;;;;;29.70;37.09;99022.03;4480848;32;34621;-62
2022/08/19 04:16:46;;;;;;;10.73;7.35;;;;;;;29.69;36.95;99025.03;4473203;32;35631;-61
2022/08/19 04:19:16;;;;;;;11.63;8.07;;;;;;;29.36;37.75;99025.94;4480175;32;34948;-61
2022/08/19 04:21:46;;;;;;;12.05;7.57;;;;;;;29.34;37.86;99028.13;4481702;32;33782;-61
2022/08/19 04:24:14;;;;;;;10.45;8.23;;;;;;;29.24;38.16;99021.38;4476154;32;33165;-61
2022/08/19 04:26:42;;;;;;;12.27;8.05;;;;;;;29.50;37.90;99021.72;4474745;32;33453;-61
2022/08/19 04:29:15;;;;;;;13.02;8.15;;;;;;;29.62;37.56;99027.16;4467446;32;35025;-61
2022/08/19 04:31:45;;;;;;;13.55;7.75;;;;;;;29.64;37.74;99030.50;4474220;31;34729;-61
2022/08/19 04:34:14;;;;;;;11.40;8.00;;;;;;;29.66;37.67;99029.16;4479294;32;32683;-61
2022/08/19 04:36:44;;;;;;;13.45;8.45;;;;;;;29.55;37.83;99026.47;4461833;32;34563;-62
2022/08/19 04:39:15;;;;;;;11.65;8.00;;;;;;;29.66;37.57;99029.16;4468748;31;33952;-61
2022/08/19 04:44:34;;;;;;;12.30;8.30;;;;;;;29.54;38.05;99031.16;4477459;31;33718;-61
2022/08/19 04:47:06;;;;;;;10.75;7.93;;;;;;;29.67;37.71;99028.06;4470900;32;33986;-63
2022/08/19 04:49:37;;;;;;;11.10;7.40;;;;;;;29.63;37.83;99034.31;4469858;32;35018;-62
2022/08/19 04:52:05;;;;;;;10.93;8.00;;;;;;;29.52;38.08;99025.06;4478417;32;33926;-62
2022/08/19 04:54:32;;;;;;;12.57;7.95;;;;;;;29.64;37.95;99038.78;4479489;31;33934;-66
2022/08/19 04:57:09;;;;;;;11.77;7.68;;;;;;;29.51;38.17;99037.19;4479916;32;33046;-61
2022/08/19 04:59:38;;;;;;;13.38;8.40;;;;;;;29.26;38.82;99043.19;4477277;31;33946;-61
2022/08/19 05:02:08;;;;;;;12.82;8.10;;;;;;;29.38;38.64;99043.91;4474631;32;33741;-61
2022/08/19 05:04:38;;;;;;;15.40;8.48;;;;;;;29.24;38.79;99043.41;4480389;31;33923;-62
2022/08/19 05:07:07;;;;;;;11.15;8.38;;;;;;;29.30;38.71;99041.56;4479214;32;32408;-61
2022/08/19 05:09:35;;;;;;;9.70;7.95;;;;;;;29.43;38.62;99043.13;4477709;32;35259;-62
2022/08/19 05:12:24;;;;;;;10.40;7.95;;;;;;;29.54;38.39;99047.72;4476325;32;33789;-62
2022/08/19 05:14:57;;;;;;;11.32;8.15;;;;;;;29.48;38.53;99045.97;4474582;32;34300;-62
2022/08/19 05:17:26;;;;;;;12.63;7.68;;;;;;;29.38;38.62;99037.56;4473152;31;33219;-63
2022/08/19 05:22:46;;;;;;;15.23;7.95;;;;;;;29.28;38.81;99040.16;4480862;31;33632;-61
2022/08/19 05:25:19;;;;;;;11.73;7.78;;;;;;;29.54;38.62;99041.37;4481174;32;34309;-61
2022/08/19 05:27:47;;;;;;;12.27;8.02;;;;;;;29.68;38.46;99050.94;4475957;32;34540;-64
2022/08/19 05:30:16;;;;;;;12.43;7.90;;;;;;;29.70;38.23;99046.03;4481708;32;33769;-64
2022/08/19 05:32:43;;;;;;;10.25;8.02;;;;;;;29.86;38.01;99045.12;4470824;32;32743;-64
2022/08/19 05:35:11;;;;;;;10.43;8.00;;;;;;;29.92;38.08;99048.75;4478730;32;33640;-63
2022/08/19 05:37:40;;;;;;;10.30;8.38;;;;;;;29.69;38.21;99047.91;4472605;31;33810;-63
2022/08/19 05:40:09;;;;;;;12.40;7.87;;;;;;;29.62;38.52;99050.03;4474161;32;33558;-63
2022/08/19 05:42:37;;;;;;;10.35;7.10;;;;;;;29.52;38.77;99051.81;4480758;31;35170;-64
2022/08/19 05:45:06;;;;;;;12.07;8.18;;;;;;;29.75;38.30;99048.81;4472527;32;32336;-61
2022/08/19 05:47:34;;;;;;;14.18;7.32;;;;;;;29.71;38.27;99047.69;4476662;31;32312;-61
2022/08/19 05:50:08;;;;;;;9.98;7.55;;;;;;;29.77;38.18;99049.41;4474998;32;34628;-61
2022/08/19 05:52:38;;;;;;;14.63;8.18;;;;;;;29.81;38.09;99039.53;4478840;32;34124;-61
2022/08/19 05:55:12;;;;;;;9.13;7.35;;;;;;;29.55;38.42;99043.03;4473855;32;31922;-61
2022/08/19 05:57:40;;;;;;;11.35;8.00;;;;;;;29.93;38.07;99045.75;4481815;32;33240;-61
2022/08/19 06:00:10;;;;;;;10.85;7.70;;;;;;;29.84;38.03;99044.53;4477912;31;33979;-62
2022/08/19 06:02:38;;;;;;;10.43;7.93;;;;;;;29.73;38.10;99047.41;4478172;32;32976;-62
2022/08/19 06:05:08;;;;;;;14.00;7.97;;;;;;;29.47;38.78;99045.16;4478440;31;32440;-63
2022/08/19 06:07:37;;;;;;;12.70;8.32;;;;;;;29.46;38.60;99037.94;4479448;32;33262;-64
2022/08/19 06:10:07;;;;;;;13.25;7.70;;;;;;;29.55;38.00;99035.59;4479756;31;33731;-64
2022/08/19 06:12:36;;;;;;;10.82;7.47;;;;;;;29.19;38.89;99035.09;4480857;32;33438;-63
2022/08/19 06:15:09;;;;;;;11.38;7.28;;;;;;;29.05;39.29;99032.94;4473835;32;33563;-64
2022/08/19 06:17:37;;;;;;;10.18;8.00;;;;;;;29.18;38.74;99036.19;4481047;32;33540;-63
2022/08/19 06:20:08;;;;;;;10.43;7.22;;;;;;;28.87;39.60;99042.28;4475709;32;33824;-64
2022/08/19 06:22:41;;;;;;;13.45;7.87;;;;;;;29.20;38.90;99031.25;4478095;32;34676;-63
2022/08/19 06:25:09;;;;;;;11.95;7.95;;;;;;;29.17;38.89;99033.69;4482117;32;34762;-63
2022/08/19 06:27:37;;;;;;;9.65;7.60;;;;;;;29.22;38.74;99028.25;4482039;31;34295;-63
2022/08/19 06:30:20;;;;;;;9.80;7.05;;;;;;;28.95;39.23;99025.31;4480840;32;34801;-63
2022/08/19 06:32:47;;;;;;;9.52;6.72;;;;;;;28.98;39.17;99028.41;4478141;31;33894;-63
2022/08/19 06:35:15;;;;;;;10.25;7.53;;;;;;;29.15;39.12;99024.81;4475427;32;33114;-63
2022/08/19 06:37:43;;;;;;;11.55;6.87;;;;;;;29.10;39.16;99014.56;4480359;31;33302;-63
2022/08/19 06:40:12;;;;;;;12.23;7.30;;;;;;;29.07;39.29;99017.84;4472011;32;33344;-62
2022/08/19 06:42:39;;;;;;;10.60;7.45;;;;;;;29.21;38.93;99015.53;4478009;31;35358;-64
2022/08/19 06:45:24;;;;;;;21.10;8.20;;;;;;;29.24;39.17;99004.00;4481009;32;33883;-63
2022/08/19 06:48:02;;;;;;;9.93;7.15;;;;;;;29.59;38.48;99019.34;4480280;31;33605;-64
2022/08/19 06:50:30;;;;;;;11.07;7.85;;;;;;;29.45;38.50;99013.41;4468224;32;33457;-63
2022/08/19 06:52:57;;;;;;;11.63;7.22;;;;;;;29.33;38.53;99027.28;4479542;31;33534;-64
2022/08/19 06:55:31;;;;;;;11.75;7.43;;;;;;;29.10;38.87;99031.09;4472678;32;33993;-64
2022/08/19 06:58:04;;;;;;;12.85;7.30;;;;;;;29.24;39.18;99039.84;4474387;31;34262;-64
2022/08/19 07:00:32;;;;;;;10.43;7.32;;;;;;;29.44;39.02;99048.41;4471214;32;32014;-65
2022/08/19 07:03:00;;;;;;;11.80;7.78;;;;;;;29.94;37.61;99052.09;4472409;32;34581;-63
2022/08/19 07:05:41;;;;;;;12.50;7.47;;;;;;;29.65;37.65;99055.03;4477997;31;34539;-64
2022/08/19 07:08:13;;;;;;;10.68;6.75;;;;;;;29.62;37.90;99057.47;4475715;32;33101;-64
2022/08/19 07:10:44;;;;;;;11.77;7.03;;;;;;;29.81;37.96;99063.53;4479341;31;33981;-64
2022/08/19 07:13:12;;;;;;;11.52;7.62;;;;;;;29.49;38.03;99070.50;4476787;32;34750;-63
2022/08/19 07:15:40;;;;;;;10.20;7.03;;;;;;;29.77;37.83;99062.38;4473047;32;32260;-64
2022/08/19 07:18:09;;;;;;;11.90;6.57;;;;;;;29.77;38.22;99070.66;4478876;32;34354;-61
2022/08/19 07:20:39;;;;;;;15.55;7.05;;;;;;;30.22;37.43;99069.56;4477216;31;33887;-63
2022/08/19 07:23:09;;;;;;;12.15;7.47;;;;;;;30.03;37.82;99069.03;4482833;32;33357;-62
2022/08/19 07:25:43;;;;;;;9.03;6.37;;;;;;;29.90;37.56;99073.84;4479804;31;33511;-62
2022/08/19 07:28:11;;;;;;;10.73;7.22;;;;;;;29.91;37.78;99069.16;4477122;32;33359;-63
2022/08/19 07:30:50;;;;;;;11.43;7.68;;;;;;;29.94;38.09;99055.66;4478320;31;33807;-61
2022/08/19 07:33:20;;;;;;;13.02;6.95;;;;;;;29.74;38.21;99063.72;4471483;32;130080;-64
2022/08/19 07:35:48;;;;;;;11.32;6.68;;;;;;;30.31;36.75;99060.53;4476252;32;34511;-64
2022/08/19 07:38:17;;;;;;;10.23;6.95;;;;;;;30.55;36.56;99065.72;4480874;32;32851;-64
2022/08/19 07:40:45;;;;;;;10.43;7.22;;;;;;;30.38;36.99;99055.63;4472624;32;33592;-65
2022/08/19 07:43:14;;;;;;;12.82;6.90;;;;;;;30.92;36.22;99059.47;4477918;31;33729;-64
2022/08/19 07:45:45;;;;;;;11.35;6.75;;;;;;;30.71;36.69;99053.72;4475905;32;34787;-64
2022/08/19 07:48:14;;;;;;;11.73;6.60;;;;;;;30.76;36.08;99059.31;4468574;31;32383;-65
2022/08/19 07:50:41;;;;;;;9.07;6.53;;;;;;;30.69;36.34;99055.06;4470411;32;35017;-63
2022/08/19 07:53:09;;;;;;;12.85;6.65;;;;;;;30.97;35.70;99053.97;4479381;31;34185;-64
2022/08/19 07:55:37;;;;;;;12.00;6.57;;;;;;;31.15;34.55;99063.78;4476456;32;33590;-64
2022/08/19 07:58:13;;;;;;;10.95;7.07;;;;;;;30.84;35.58;99067.12;4478639;31;34332;-65
2022/08/19 08:00:42;;;;;;;12.05;6.25;;;;;;;30.73;35.54;99072.81;4478458;32;34959;-64
2022/08/19 08:03:10;;;;;;;12.50;7.00;;;;;;;31.23;34.65;99072.38;4477704;31;34851;-64
2022/08/19 08:10:59;;;;;;;10.25;6.72;;;;;;;31.38;34.09;99057.03;4479400;32;34545;-65
2022/08/19 08:13:27;;;;;;;9.27;6.15;;;;;;;31.52;34.21;99069.28;4476075;32;32486;-64
2022/08/19 08:15:56;;;;;;;11.85;6.35;;;;;;;31.58;34.12;99061.84;4475574;31;33739;-64
2022/08/19 08:18:24;;;;;;;10.60;6.53;;;;;;;31.65;34.02;99066.00;4476397;32;33116;-64
2022/08/19 08:20:57;;;;;;;9.15;6.68;;;;;;;31.91;33.28;99060.62;4478460;31;33536;-64
2022/08/19 08:23:26;;;;;;;9.95;6.50;;;;;;;31.94;32.58;99060.09;4479799;32;34684;-64
2022/08/19 08:25:56;;;;;;;10.38;6.45;;;;;;;32.41;32.30;99059.94;4480504;31;33967;-65
2022/08/19 08:28:27;;;;;;;12.00;6.28;;;;;;;32.54;32.18;99061.38;4479639;32;34277;-64
2022/08/19 08:30:57;;;;;;;12.60;6.00;;;;;;;32.33;31.08;99054.97;4479848;31;32536;-65
2022/08/19 08:33:27;;;;;;;10.20;5.72;;;;;;;32.55;30.79;99054.72;4480176;32;34267;-64
2022/08/19 08:36:04;;;;;;;11.77;6.00;;;;;;;32.56;30.33;99056.41;4478154;31;33654;-64
2022/08/19 08:38:33;;;;;;;12.07;5.90;;;;;;;32.13;31.53;99050.19;4482394;32;33505;-64
2022/08/19 08:41:48;;;;;;;8.20;6.30;;;;;;;32.37;31.07;99035.84;4471623;31;33956;-64
2022/08/19 08:44:40;;;;;;;8.00;5.60;;;;;;;32.42;31.01;99022.00;4458776;32;34062;-64
2022/08/19 08:47:15;;;;;;;9.35;6.10;;;;;;;32.50;30.38;99026.19;4472229;32;34770;-64
2022/08/19 08:50:06;;;;;;;7.93;5.78;;;;;;;32.51;30.88;99044.47;4476165;32;33127;-62
2022/08/19 08:52:42;;;;;;;11.93;5.70;;;;;;;32.64;30.70;99044.75;4470193;32;34898;-62
2022/08/19 08:55:16;;;;;;;9.43;5.78;;;;;;;32.97;29.16;99045.34;4483635;32;32433;-62
2022/08/19 08:57:54;;;;;;;8.77;5.85;;;;;;;32.92;29.19;99043.38;4470654;32;33889;-62
2022/08/19 09:00:40;;;;;;;8.88;5.53;;;;;;;32.63;30.01;99036.72;4471927;32;32958;-63
2022/08/19 09:03:16;;;;;;;8.10;5.90;;;;;;;32.51;30.32;99025.91;4470653;32;32404;-64
2022/08/19 09:06:03;;;;;;;9.27;6.45;;;;;;;32.64;30.45;99024.53;4478282;32;34182;-64
2022/08/19 09:08:57;;;;;;;9.48;5.57;;;;;;;33.06;30.07;99027.03;4481389;32;33651;-63
2022/08/19 09:12:05;;;;;;;8.38;5.43;;;;;;;33.27;29.09;99032.53;4457751;32;31672;-64
2022/08/19 09:14:53;;;;;;;11.70;5.70;;;;;;;33.35;28.96;99032.78;4477553;32;33960;-65
2022/08/19 09:17:27;;;;;;;9.35;5.45;;;;;;;33.73;28.63;99030.47;4467279;32;34012;-64
2022/08/19 09:20:06;;;;;;;7.18;5.12;;;;;;;33.55;28.24;99026.37;4476922;32;32805;-64
2022/08/19 09:22:37;;;;;;;10.27;5.93;;;;;;;33.77;28.28;99020.47;4482955;32;33491;-63
2022/08/19 09:25:07;;;;;;;13.95;5.57;;;;;;;33.99;28.22;99017.28;4480535;32;34669;-65
2022/08/19 09:27:38;;;;;;;7.87;5.15;;;;;;;34.37;26.75;99014.03;4484125;32;33601;-64
2022/08/19 09:30:17;;;;;;;10.73;5.47;;;;;;;34.21;27.00;99013.31;4480872;32;32858;-64
2022/08/19 09:32:45;;;;;;;7.57;5.22;;;;;;;34.38;27.10;99012.91;4470251;32;33316;-64
2022/08/19 09:35:25;;;;;;;8.50;5.40;;;;;;;34.43;27.03;99010.09;4477665;32;32299;-64
2022/08/19 09:37:56;;;;;;;10.32;5.15;;;;;;;34.61;26.58;99020.56;4477188;31;35149;-63
2022/08/19 09:40:28;;;;;;;9.55;4.95;;;;;;;34.53;27.02;99008.09;4478421;31;33695;-63
2022/08/19 09:42:57;;;;;;;8.48;5.95;;;;;;;34.39;26.08;99009.84;4476144;32;33541;-63
2022/08/19 09:45:25;;;;;;;10.32;5.12;;;;;;;34.28;26.59;99006.31;4478953;31;35334;-64
2022/08/19 09:47:53;;;;;;;9.57;5.85;;;;;;;34.35;27.04;99006.00;4475479;32;32009;-64
2022/08/19 09:50:23;;;;;;;11.07;6.28;;;;;;;34.47;26.33;98997.28;4476751;31;32496;-62
2022/08/19 09:52:52;;;;;;;6.97;5.57;;;;;;;34.43;27.17;98997.03;4470949;32;34362;-62
2022/08/19 09:55:25;;;;;;;9.43;5.83;;;;;;;34.45;27.08;98986.47;4480123;32;33356;-62
2022/08/19 09:58:02;;;;;;;10.30;5.20;;;;;;;34.72;27.02;98994.31;4469013;32;33965;-62
2022/08/19 10:00:30;;;;;;;9.98;5.90;;;;;;;34.95;26.58;98995.50;4475477;32;34648;-61
2022/08/19 10:02:58;;;;;;;8.23;5.85;;;;;;;35.09;26.45;98992.91;4471872;32;33029;-62
2022/08/19 10:08:17;;;;;;;9.23;5.47;;;;;;;35.68;26.36;98991.66;4473714;31;33716;-63
2022/08/19 10:10:48;;;;;;;8.05;5.60;;;;;;;35.61;26.22;98980.06;4478638;32;33880;-63
2022/08/19 10:13:21;;;;;;;8.38;5.43;;;;;;;35.45;25.93;98975.78;4475546;31;32132;-62
2022/08/19 10:15:50;;;;;;;12.73;5.80;;;;;;;35.76;25.46;98983.75;4470703;32;32338;-62
2022/08/19 10:18:20;;;;;;;9.05;5.80;;;;;;;35.82;25.40;98977.00;4471237;32;32739;-62
2022/08/19 10:20:48;;;;;;;10.13;5.22;;;;;;;35.42;25.81;98985.56;4473639;32;33784;-63
2022/08/19 10:23:19;;;;;;;10.48;6.05;;;;;;;35.66;25.45;98977.19;4468270;32;34700;-62
2022/08/19 10:25:48;;;;;;;8.60;5.55;;;;;;;35.82;25.39;98966.69;4477125;32;34919;-63
2022/08/19 10:28:16;;;;;;;9.07;5.37;;;;;;;35.91;25.37;98964.87;4477951;32;32738;-63
2022/08/19 10:30:47;;;;;;;7.32;5.35;;;;;;;36.10;25.62;98975.25;4473905;32;33114;-63
2022/08/19 10:33:14;;;;;;;12.27;5.78;;;;;;;36.32;25.17;98978.22;4479309;32;33437;-62
2022/08/19 10:36:09;;;;;;;8.15;5.55;;;;;;;35.95;24.95;98981.00;4476193;32;33985;-62
2022/08/19 10:38:37;;;;;;;15.82;5.68;;;;;;;36.34;24.53;98980.69;4468286;32;33704;-64
2022/08/19 10:41:14;;;;;;;7.93;5.65;;;;;;;36.17;24.17;98972.91;4469429;32;35311;-63
2022/08/19 10:43:44;;;;;;;9.77;5.30;;;;;;;36.61;23.46;98975.28;4463061;32;32348;-63
2022/08/19 10:46:14;;;;;;;10.77;5.50;;;;;;;36.93;23.09;98972.78;4467255;32;34075;-64
2022/08/19 10:48:44;;;;;;;8.88;5.18;;;;;;;36.61;23.42;98966.91;4468766;32;33921;-63
2022/08/19 10:53:59;;;;;;;8.98;5.28;;;;;;;36.57;23.36;98970.63;4477547;32;33450;-63
2022/08/19 10:59:15;;;;;;;11.12;6.20;;;;;;;37.05;23.08;98973.13;4479454;32;33830;-64
2022/08/19 11:01:44;;;;;;;10.90;5.22;;;;;;;37.12;22.60;98979.13;4478953;31;34877;-63
2022/08/19 11:04:13;;;;;;;10.68;5.37;;;;;;;37.12;22.57;98973.56;4479040;32;33102;-64
2022/08/19 11:06:43;;;;;;;8.63;6.03;;;;;;;37.34;22.24;98963.63;4472683;31;35080;-63
2022/08/19 11:09:11;;;;;;;6.95;5.30;;;;;;;37.36;22.11;98967.75;4481533;32;34104;-64
2022/08/19 11:11:41;;;;;;;10.55;6.20;;;;;;;37.34;22.01;98969.19;4481181;32;32635;-64
2022/08/19 11:14:14;;;;;;;12.52;7.87;;;;;;;37.45;21.90;98976.28;4466262;32;33132;-64
2022/08/19 11:16:42;;;;;;;12.88;9.05;;;;;;;37.56;21.65;98974.09;4475314;32;32368;-64
2022/08/19 11:19:11;;;;;;;12.43;10.10;;;;;;;37.88;21.58;98971.13;4477104;31;35090;-64
2022/08/19 11:21:42;;;;;;;15.27;10.10;;;;;;;37.77;21.62;98978.09;4477522;32;32552;-64
2022/08/19 11:24:13;;;;;;;12.75;11.05;;;;;;;38.01;21.61;98977.84;4471828;32;33029;-64
2022/08/19 11:26:43;;;;;;;12.73;11.35;;;;;;;37.93;21.20;98973.84;4462442;32;33677;-63
2022/08/19 11:29:13;;;;;;;14.80;11.05;;;;;;;37.48;21.92;98973.69;4468771;32;34248;-64
2022/08/19 11:31:43;;;;;;;13.35;11.93;;;;;;;37.63;21.68;98975.34;4478452;32;33761;-64
2022/08/19 11:34:16;;;;;;;15.68;12.85;;;;;;;37.83;21.17;98976.84;4480718;32;31998;-64
2022/08/19 11:36:45;;;;;;;16.77;14.20;;;;;;;37.91;20.66;98978.06;4477006;32;33918;-63
2022/08/19 11:39:16;;;;;;;15.88;12.80;;;;;;;37.95;21.06;98977.16;4477840;31;33980;-63
2022/08/19 11:41:44;;;;;;;15.43;11.65;;;;;;;38.07;21.21;98976.59;4480173;32;33879;-63
2022/08/19 11:44:13;;;;;;;14.87;11.18;;;;;;;37.95;21.18;98966.00;4479345;31;31774;-63
2022/08/19 11:46:45;;;;;;;15.27;10.45;;;;;;;37.91;21.58;98964.09;4478256;32;33382;-63
2022/08/19 11:49:14;;;;;;;13.43;10.18;;;;;;;37.91;21.74;98961.28;4476791;32;33459;-64
2022/08/19 11:51:43;;;;;;;12.07;9.82;;;;;;;38.31;21.15;98956.75;4481097;31;33687;-63
2022/08/19 11:54:13;;;;;;;13.45;9.98;;;;;;;37.45;22.65;98963.13;4480639;32;33243;-62
2022/08/19 11:56:41;;;;;;;12.70;10.70;;;;;;;37.72;21.90;98953.91;4478326;31;33815;-63
2022/08/19 11:59:10;;;;;;;15.05;12.18;;;;;;;37.62;21.71;98947.72;4474925;32;34410;-63
2022/08/19 12:01:42;;;;;;;13.80;12.30;;;;;;;37.28;22.61;98960.12;4480340;31;34578;-62
2022/08/19 12:04:10;;;;;;;13.73;11.98;;;;;;;37.65;22.06;98958.25;4480341;32;34509;-62
2022/08/19 12:06:39;;;;;;;17.65;13.57;;;;;;;37.72;22.21;98956.72;4483538;31;34602;-62